createdAt,value
2022-10-14T00:00:03.649Z,12.35
2022-10-14T00:02:31.521Z,17.83
2022-10-14T00:04:59.384Z,14.35
2022-10-14T00:07:27.286Z,10.15
2022-10-14T00:09:55.231Z,13.23
2022-10-14T00:12:23.151Z,12.23
2022-10-14T00:14:52.518Z,12.00
2022-10-14T00:17:20.713Z,12.18
2022-10-14T00:19:48.798Z,14.13
2022-10-14T00:22:16.959Z,15.23
2022-10-14T00:24:44.853Z,17.98
2022-10-14T00:27:12.773Z,16.48
2022-10-14T00:29:40.657Z,17.77
2022-10-14T00:32:09.959Z,19.20
2022-10-14T00:34:38.012Z,20.60
2022-10-14T00:37:05.850Z,14.90
2022-10-14T00:39:33.765Z,14.95
2022-10-14T00:42:01.758Z,18.85
2022-10-14T00:45:00.138Z,14.95
2022-10-14T00:47:29.589Z,22.27
2022-10-14T00:49:58.516Z,13.77
2022-10-14T00:52:26.600Z,15.95
2022-10-14T00:54:57.899Z,14.93
2022-10-14T00:57:26.858Z,17.00
2022-10-14T00:59:57.915Z,13.20
2022-10-14T01:02:25.848Z,15.85
2022-10-14T01:04:55.325Z,16.95
2022-10-14T01:07:32.766Z,13.93
2022-10-14T01:10:06.559Z,13.77
2022-10-14T01:12:42.641Z,24.42
2022-10-14T01:15:20.177Z,16.15
2022-10-14T01:17:59.829Z,24.25
2022-10-14T01:20:50.499Z,22.35
2022-10-14T01:23:57.190Z,14.32
2022-10-14T01:26:40.196Z,22.60
2022-10-14T01:29:22.155Z,17.40
2022-10-14T01:32:00.585Z,17.98
2022-10-14T01:34:35.598Z,26.25
2022-10-14T01:37:10.003Z,18.40
2022-10-14T01:39:42.676Z,17.17
2022-10-14T01:42:15.314Z,22.42
2022-10-14T01:44:48.508Z,18.70
2022-10-14T01:47:21.760Z,15.07
2022-10-14T01:49:57.016Z,16.95
2022-10-14T01:52:29.990Z,27.52
2022-10-14T01:55:02.704Z,23.83
2022-10-14T01:57:35.118Z,19.08
2022-10-14T02:00:04.624Z,23.17
2022-10-14T02:02:37.914Z,16.17
2022-10-14T02:05:09.783Z,16.80
2022-10-14T02:07:41.405Z,17.75
2022-10-14T02:10:20.106Z,21.70
2022-10-14T02:12:59.418Z,15.60
2022-10-14T02:15:32.585Z,20.85
2022-10-14T02:18:12.307Z,28.65
2022-10-14T02:20:47.042Z,13.45
2022-10-14T02:23:17.926Z,16.33
2022-10-14T02:25:48.010Z,20.45
2022-10-14T02:28:19.922Z,19.42
2022-10-14T02:30:52.143Z,18.63
2022-10-14T02:33:25.526Z,11.60
2022-10-14T02:35:54.194Z,16.83
2022-10-14T02:38:22.627Z,15.05
2022-10-14T02:40:51.892Z,15.35
2022-10-14T02:43:19.949Z,18.58
2022-10-14T02:45:47.843Z,20.67
2022-10-14T02:48:15.693Z,20.92
2022-10-14T02:50:45.110Z,22.05
2022-10-14T02:53:16.934Z,15.43
2022-10-14T02:55:44.804Z,15.15
2022-10-14T02:58:12.667Z,22.42
2022-10-14T03:00:40.537Z,22.85
2022-10-14T03:03:08.817Z,16.02
2022-10-14T03:05:36.743Z,19.45
2022-10-14T03:08:06.195Z,20.38
2022-10-14T03:10:34.020Z,21.67
2022-10-14T03:13:01.872Z,14.57
2022-10-14T03:15:29.738Z,18.95
2022-10-14T03:17:57.681Z,15.55
2022-10-14T03:20:25.595Z,14.75
2022-10-14T03:22:53.444Z,14.88
2022-10-14T03:25:23.388Z,16.27
2022-10-14T03:27:51.390Z,14.45
2022-10-14T03:30:19.433Z,15.60
2022-10-14T03:32:47.308Z,17.13
2022-10-14T03:35:15.497Z,16.80
2022-10-14T03:37:43.356Z,20.75
2022-10-14T03:40:12.421Z,14.52
2022-10-14T03:42:42.690Z,14.70
2022-10-14T03:45:11.570Z,18.75
2022-10-14T03:47:39.437Z,19.52
2022-10-14T03:50:07.729Z,19.95
2022-10-14T03:52:36.105Z,17.00
2022-10-14T03:55:04.354Z,18.40
2022-10-14T03:57:32.209Z,13.38
2022-10-14T04:00:01.443Z,12.82
2022-10-14T04:02:29.306Z,20.50
2022-10-14T04:05:00.736Z,13.55
2022-10-14T04:07:28.976Z,17.58
2022-10-14T04:09:57.289Z,15.13
2022-10-14T04:12:25.200Z,23.70
2022-10-14T04:14:56.595Z,11.82
2022-10-14T04:17:26.320Z,15.70
2022-10-14T04:19:54.525Z,13.30
2022-10-14T04:22:23.131Z,15.77
2022-10-14T04:24:51.688Z,18.92
2022-10-14T04:27:19.954Z,10.07
2022-10-14T04:29:47.918Z,11.18
2022-10-14T04:32:15.754Z,10.52
2022-10-14T04:34:44.956Z,11.77
2022-10-14T04:37:13.334Z,13.77
2022-10-14T04:39:41.215Z,16.63
2022-10-14T04:42:09.089Z,16.88
2022-10-14T04:44:36.909Z,11.93
2022-10-14T04:47:04.940Z,9.77
2022-10-14T04:49:32.890Z,15.68
2022-10-14T04:52:02.089Z,13.02
2022-10-14T04:54:30.783Z,10.13
2022-10-14T04:56:58.712Z,13.70
2022-10-14T04:59:26.610Z,12.05
2022-10-14T05:01:54.636Z,13.15
2022-10-14T05:04:22.550Z,10.80
2022-10-14T05:06:50.743Z,21.23
2022-10-14T05:09:20.033Z,15.77
2022-10-14T05:11:48.147Z,11.43
2022-10-14T05:14:16.074Z,10.38
2022-10-14T05:16:44.054Z,16.77
2022-10-14T05:19:11.911Z,12.10
2022-10-14T05:21:39.787Z,12.15
2022-10-14T05:24:08.182Z,16.90
2022-10-14T05:26:37.355Z,12.77
2022-10-14T05:29:05.512Z,8.73
2022-10-14T05:31:33.373Z,14.50
2022-10-14T05:34:01.215Z,12.80
2022-10-14T05:36:29.077Z,9.45
2022-10-14T05:38:58.726Z,11.60
2022-10-14T05:41:26.769Z,8.85
2022-10-14T05:43:55.994Z,12.52
2022-10-14T05:46:23.867Z,11.70
2022-10-14T05:48:51.776Z,10.25
2022-10-14T05:51:21.218Z,9.05
2022-10-14T05:53:49.214Z,13.77
2022-10-14T05:56:17.111Z,12.55
2022-10-14T05:58:45.060Z,12.90
2022-10-14T06:01:14.274Z,10.35
2022-10-14T06:03:42.363Z,9.07
2022-10-14T06:06:13.955Z,15.32
2022-10-14T06:08:42.298Z,10.32
2022-10-14T06:11:10.375Z,10.57
2022-10-14T06:13:38.318Z,9.23
2022-10-14T06:16:07.513Z,11.27
2022-10-14T06:18:37.299Z,18.58
2022-10-14T06:21:07.613Z,11.25
2022-10-14T06:23:35.792Z,11.23
2022-10-14T06:26:05.965Z,9.75
2022-10-14T06:28:33.937Z,8.73
2022-10-14T06:31:01.874Z,6.28
2022-10-14T06:33:30.280Z,11.57
2022-10-14T06:35:59.981Z,7.90
2022-10-14T06:38:27.858Z,13.52
2022-10-14T06:40:56.199Z,9.98
2022-10-14T06:43:24.096Z,10.63
2022-10-14T06:45:52.822Z,13.07
2022-10-14T06:48:20.727Z,8.68
2022-10-14T06:50:48.582Z,12.20
2022-10-14T06:53:17.754Z,8.77
2022-10-14T06:55:45.682Z,9.75
2022-10-14T06:58:13.597Z,10.07
2022-10-14T07:00:45.759Z,12.07
2022-10-14T07:03:15.741Z,15.25
2022-10-14T07:05:43.948Z,9.63
2022-10-14T07:08:14.540Z,11.35
2022-10-14T07:10:44.888Z,14.27
2022-10-14T07:13:12.744Z,14.93
2022-10-14T07:15:41.242Z,16.88
2022-10-14T07:18:09.428Z,14.00
2022-10-14T07:20:37.314Z,6.45
2022-10-14T07:23:05.160Z,13.68
2022-10-14T07:25:33.817Z,7.75
2022-10-14T07:28:02.999Z,11.85
2022-10-14T07:30:31.151Z,13.00
2022-10-14T07:33:00.405Z,7.32
2022-10-14T07:35:28.289Z,6.07
2022-10-14T07:37:56.670Z,13.93
2022-10-14T07:40:24.565Z,8.25
2022-10-14T07:42:52.457Z,11.13
2022-10-14T07:45:21.675Z,10.30
2022-10-14T07:47:51.893Z,19.48
2022-10-14T07:50:20.673Z,9.80
2022-10-14T07:52:48.605Z,7.57
2022-10-14T07:55:16.526Z,14.50
2022-10-14T07:57:44.413Z,10.05
2022-10-14T08:00:12.875Z,16.85
2022-10-14T08:02:42.135Z,8.60
2022-10-14T08:05:36.574Z,14.55
2022-10-14T08:07:58.141Z,8.88
2022-10-14T08:10:26.072Z,20.75
2022-10-14T08:12:53.994Z,9.70
2022-10-14T08:15:21.922Z,10.48
2022-10-14T08:17:51.209Z,8.07
2022-10-14T08:20:19.122Z,8.88
2022-10-14T08:22:47.078Z,12.82
2022-10-14T08:25:15.091Z,9.43
2022-10-14T08:27:42.982Z,7.22
2022-10-14T08:30:12.474Z,11.20
2022-10-14T08:32:40.314Z,9.88
2022-10-14T08:35:10.501Z,16.00
2022-10-14T08:37:38.384Z,8.77
2022-10-14T08:40:07.462Z,6.20
2022-10-14T08:42:44.380Z,7.15
2022-10-14T08:45:17.989Z,7.65
2022-10-14T08:47:48.702Z,5.80
2022-10-14T08:50:27.281Z,10.15
2022-10-14T08:53:00.575Z,8.75
2022-10-14T08:55:34.707Z,9.43
2022-10-14T08:58:11.214Z,12.40
2022-10-14T09:00:42.547Z,9.80
2022-10-14T09:03:17.584Z,8.73
2022-10-14T09:05:48.329Z,8.65
2022-10-14T09:08:18.738Z,11.40
2022-10-14T09:10:46.885Z,12.18
2022-10-14T09:13:19.006Z,8.50
2022-10-14T09:15:53.244Z,8.20
2022-10-14T09:18:25.238Z,5.55
2022-10-14T09:20:56.232Z,9.15
2022-10-14T09:23:25.666Z,10.45
2022-10-14T09:25:57.651Z,10.60
2022-10-14T09:28:32.855Z,6.13
2022-10-14T09:31:00.844Z,6.45
2022-10-14T09:33:30.151Z,6.00
2022-10-14T09:38:32.267Z,11.10
2022-10-14T09:41:01.255Z,10.60
2022-10-14T09:43:29.743Z,9.25
2022-10-14T09:46:00.173Z,13.38
2022-10-14T09:48:36.323Z,5.30
2022-10-14T09:51:08.848Z,7.70
2022-10-14T09:53:41.153Z,7.55
2022-10-14T09:56:10.749Z,8.45
2022-10-14T09:58:44.107Z,7.40
2022-10-14T10:01:17.422Z,8.20
2022-10-14T10:03:46.023Z,12.18
2022-10-14T10:06:18.971Z,9.23
2022-10-14T10:08:58.106Z,14.65
2022-10-14T10:11:30.934Z,8.23
2022-10-14T10:13:58.834Z,11.93
2022-10-14T10:16:31.294Z,12.45
2022-10-14T10:19:18.058Z,11.65
2022-10-14T10:21:47.769Z,9.23
2022-10-14T10:24:20.357Z,13.18
2022-10-14T10:26:48.520Z,6.75
2022-10-14T10:29:25.964Z,10.30
2022-10-14T10:32:08.594Z,10.05
2022-10-14T10:35:04.417Z,7.68
2022-10-14T10:37:38.250Z,12.38
2022-10-14T10:40:25.527Z,11.68
2022-10-14T10:43:07.914Z,18.30
2022-10-14T10:45:45.027Z,10.10
2022-10-14T10:48:21.066Z,13.73
2022-10-14T10:50:57.704Z,13.18
2022-10-14T10:53:41.478Z,8.63
2022-10-14T10:56:18.342Z,18.48
2022-10-14T10:59:03.192Z,10.63
2022-10-14T11:01:40.117Z,10.25
2022-10-14T11:04:30.663Z,15.15
2022-10-14T11:07:27.968Z,8.85
2022-10-14T11:10:33.782Z,9.13
2022-10-14T11:13:12.720Z,8.20
2022-10-14T11:15:48.460Z,17.02
2022-10-14T11:18:25.502Z,10.98
2022-10-14T11:21:06.794Z,11.60
2022-10-14T11:23:59.574Z,9.15
2022-10-14T11:26:51.313Z,8.68
2022-10-14T11:29:46.149Z,8.65
2022-10-14T11:32:22.754Z,6.65
2022-10-14T11:35:12.997Z,8.02
2022-10-14T11:37:51.718Z,8.73
2022-10-14T11:40:25.597Z,5.15
2022-10-14T11:43:08.544Z,8.77
2022-10-14T11:45:49.831Z,6.95
2022-10-14T11:48:28.460Z,5.45
2022-10-14T11:51:01.087Z,6.63
2022-10-14T11:56:18.966Z,9.95
2022-10-14T11:58:48.719Z,6.88
2022-10-14T12:01:19.285Z,12.40
2022-10-14T12:03:58.524Z,5.10
2022-10-14T12:06:31.212Z,10.95
2022-10-14T12:09:02.626Z,7.63
2022-10-14T12:11:35.059Z,6.88
2022-10-14T12:14:14.248Z,8.60
2022-10-14T12:16:44.504Z,5.05
2022-10-14T12:19:14.677Z,5.78
2022-10-14T12:21:50.632Z,5.45
2022-10-14T12:24:21.546Z,4.90
2022-10-14T12:26:55.685Z,4.70
2022-10-14T12:29:28.747Z,7.90
2022-10-14T12:32:20.762Z,5.30
2022-10-14T12:34:49.974Z,4.50
2022-10-14T12:37:52.160Z,4.85
2022-10-14T12:40:30.586Z,5.35
2022-10-14T12:43:21.709Z,3.13
2022-10-14T12:46:11.325Z,5.10
2022-10-14T12:48:46.749Z,4.20
2022-10-14T12:51:18.879Z,7.53
2022-10-14T12:53:53.798Z,3.47
2022-10-14T12:56:33.903Z,10.07
2022-10-14T12:59:04.308Z,4.40
2022-10-14T13:01:36.416Z,2.45
2022-10-14T13:04:08.302Z,8.23
2022-10-14T13:06:42.261Z,6.22
2022-10-14T13:09:40.672Z,3.92
2022-10-14T13:12:38.539Z,2.88
2022-10-14T13:15:47.371Z,2.72
2022-10-14T13:19:00.106Z,5.05
2022-10-14T13:21:53.465Z,4.45
2022-10-14T13:24:28.607Z,3.28
2022-10-14T13:27:08.690Z,2.08
2022-10-14T13:29:53.406Z,6.32
2022-10-14T13:32:31.109Z,4.13
2022-10-14T13:35:09.937Z,8.63
2022-10-14T13:37:44.782Z,2.35
2022-10-14T13:40:22.571Z,2.90
2022-10-14T13:42:54.124Z,3.15
2022-10-14T13:45:27.479Z,3.13
2022-10-14T13:47:55.743Z,3.88
2022-10-14T13:50:28.818Z,2.20
2022-10-14T13:52:59.722Z,3.58
2022-10-14T13:55:29.627Z,4.43
2022-10-14T13:58:13.034Z,3.95
2022-10-14T14:00:59.183Z,6.00
2022-10-14T14:03:32.180Z,9.65
2022-10-14T14:06:01.613Z,1.52
2022-10-14T14:08:42.149Z,5.50
2022-10-14T14:11:18.464Z,2.35
2022-10-14T14:13:59.053Z,1.55
2022-10-14T14:16:32.102Z,3.70
2022-10-14T14:19:09.172Z,7.25
2022-10-14T14:21:39.776Z,1.38
2022-10-14T14:24:18.042Z,2.72
2022-10-14T14:26:46.066Z,2.75
2022-10-14T14:29:18.899Z,2.42
2022-10-14T14:32:06.531Z,1.50
2022-10-14T14:34:37.141Z,3.92
2022-10-14T14:39:59.311Z,5.13
2022-10-14T14:42:28.730Z,2.35
2022-10-14T14:45:00.515Z,3.92
2022-10-14T14:47:30.234Z,1.90
2022-10-14T14:50:18.295Z,5.40
2022-10-14T14:52:49.593Z,3.15
2022-10-14T14:55:42.442Z,5.38
2022-10-14T14:58:29.428Z,2.05
2022-10-14T15:00:57.613Z,2.97
2022-10-14T15:03:27.608Z,2.40
2022-10-14T15:05:59.111Z,2.58
2022-10-14T15:08:30.473Z,5.15
2022-10-14T15:10:59.759Z,3.25
2022-10-14T15:13:33.783Z,4.95
2022-10-14T15:16:01.711Z,3.92
2022-10-14T15:18:30.435Z,3.33
2022-10-14T15:21:15.466Z,6.93
2022-10-14T15:23:58.451Z,2.88
2022-10-14T15:26:33.456Z,3.85
2022-10-14T15:29:15.278Z,4.20
2022-10-14T15:31:45.566Z,5.78
2022-10-14T15:34:20.153Z,4.35
2022-10-14T15:36:51.584Z,3.90
2022-10-14T15:39:21.591Z,3.85
2022-10-14T15:41:49.830Z,7.10
2022-10-14T15:44:17.674Z,3.97
2022-10-14T15:47:04.137Z,3.08
2022-10-14T15:49:33.839Z,4.93
2022-10-14T15:52:01.739Z,10.23
2022-10-14T15:54:30.959Z,5.45
2022-10-14T15:57:00.313Z,3.38
2022-10-14T15:59:28.184Z,6.30
2022-10-14T16:01:56.143Z,4.57
2022-10-14T16:04:27.453Z,3.78
2022-10-14T16:06:57.548Z,3.05
2022-10-14T16:09:27.463Z,3.08
2022-10-14T16:11:59.471Z,4.35
2022-10-14T16:14:28.256Z,6.75
2022-10-14T16:16:56.553Z,6.30
2022-10-14T16:19:24.467Z,4.53
2022-10-14T16:21:52.311Z,4.60
2022-10-14T16:24:21.900Z,8.45
2022-10-14T16:26:49.897Z,8.35
2022-10-14T16:29:20.124Z,2.28
2022-10-14T16:31:49.906Z,4.18
2022-10-14T16:34:17.999Z,2.85
2022-10-14T16:36:46.265Z,3.65
2022-10-14T16:39:14.476Z,6.20
2022-10-14T16:41:42.569Z,1.63
2022-10-14T16:44:24.202Z,4.55
2022-10-14T16:47:11.920Z,4.85
2022-10-14T16:49:40.439Z,2.53
2022-10-14T16:52:08.910Z,2.30
2022-10-14T16:54:36.806Z,6.07
2022-10-14T16:57:05.258Z,2.97
2022-10-14T16:59:33.499Z,4.38
2022-10-14T17:02:03.107Z,5.30
2022-10-14T17:04:30.967Z,2.28
2022-10-14T17:06:59.229Z,2.38
2022-10-14T17:09:27.132Z,3.97
2022-10-14T17:11:55.013Z,1.17
2022-10-14T17:14:24.189Z,1.88
2022-10-14T17:16:52.574Z,2.47
2022-10-14T17:19:23.883Z,5.15
2022-10-14T17:21:51.739Z,1.00
2022-10-14T17:24:19.617Z,4.03
2022-10-14T17:26:47.467Z,2.17
2022-10-14T17:29:15.611Z,3.05
2022-10-14T17:31:43.498Z,2.78
2022-10-14T17:34:11.574Z,4.40
2022-10-14T17:36:41.882Z,4.65
2022-10-14T17:39:16.411Z,3.58
2022-10-14T17:41:49.299Z,1.60
2022-10-14T17:44:17.248Z,10.05
2022-10-14T17:46:45.127Z,2.80
2022-10-14T17:49:13.165Z,4.97
2022-10-14T17:51:42.538Z,5.80
2022-10-14T17:54:12.668Z,7.10
2022-10-14T17:56:41.003Z,5.72
2022-10-14T17:59:11.968Z,9.57
2022-10-14T18:04:27.855Z,2.50
2022-10-14T18:06:58.570Z,2.72
2022-10-14T18:09:26.595Z,7.05
2022-10-14T18:12:10.479Z,4.72
2022-10-14T18:14:38.913Z,2.72
2022-10-14T18:17:07.090Z,2.55
2022-10-14T18:19:35.127Z,4.78
2022-10-14T18:22:06.575Z,3.13
2022-10-14T18:24:38.380Z,2.30
2022-10-14T18:27:06.888Z,6.57
2022-10-14T18:29:34.805Z,4.20
2022-10-14T18:32:02.780Z,2.92
2022-10-14T18:34:30.802Z,2.95
2022-10-14T18:36:58.775Z,8.93
2022-10-14T18:39:28.165Z,4.93
2022-10-14T18:41:56.132Z,3.45
2022-10-14T18:44:24.061Z,6.95
2022-10-14T18:46:51.999Z,3.72
2022-10-14T18:49:20.148Z,5.35
2022-10-14T18:51:48.089Z,5.20
2022-10-14T18:54:18.305Z,6.25
2022-10-14T18:56:47.959Z,7.93
2022-10-14T18:59:18.769Z,2.55
2022-10-14T19:01:47.815Z,4.93
2022-10-14T19:04:16.772Z,5.45
2022-10-14T19:06:45.852Z,5.97
2022-10-14T19:09:14.556Z,14.93
2022-10-14T19:11:42.972Z,2.38
2022-10-14T19:14:14.304Z,4.20
2022-10-14T19:16:42.772Z,3.35
2022-10-14T19:19:15.108Z,6.93
2022-10-14T19:21:43.556Z,4.85
2022-10-14T19:24:12.549Z,10.73
2022-10-14T19:26:42.902Z,4.50
2022-10-14T19:29:13.856Z,9.48
2022-10-14T19:31:43.572Z,8.35
2022-10-14T19:34:13.860Z,9.65
2022-10-14T19:36:42.192Z,13.65
2022-10-14T19:39:14.049Z,2.28
2022-10-14T19:41:44.845Z,3.75
2022-10-14T19:44:16.085Z,8.20
2022-10-14T19:46:44.608Z,3.83
2022-10-14T19:49:13.651Z,4.63
2022-10-14T19:51:41.796Z,3.45
2022-10-14T19:54:12.562Z,6.70
2022-10-14T19:56:41.030Z,6.18
2022-10-14T19:59:09.434Z,17.80
2022-10-14T20:01:38.838Z,3.83
2022-10-14T20:04:06.924Z,5.47
2022-10-14T20:06:36.562Z,3.33
2022-10-14T20:09:04.575Z,6.60
2022-10-14T20:11:32.636Z,6.80
2022-10-14T20:14:00.523Z,2.55
2022-10-14T20:16:28.528Z,3.28
2022-10-14T20:18:57.780Z,5.20
2022-10-14T20:21:26.339Z,3.45
2022-10-14T20:23:54.204Z,3.42
2022-10-14T20:26:23.018Z,2.45
2022-10-14T20:28:52.230Z,8.13
2022-10-14T20:31:22.100Z,16.33
2022-10-14T20:33:50.175Z,4.25
2022-10-14T20:36:21.040Z,2.10
2022-10-14T20:38:49.603Z,7.22
2022-10-14T20:41:19.527Z,4.32
2022-10-14T20:43:48.043Z,3.28
2022-10-14T20:46:16.774Z,4.80
2022-10-14T20:48:44.703Z,3.08
2022-10-14T20:51:15.029Z,3.50
2022-10-14T20:53:44.196Z,2.65
2022-10-14T20:56:13.774Z,4.70
2022-10-14T20:58:41.897Z,3.08
2022-10-14T21:01:11.576Z,3.40
2022-10-14T21:03:39.782Z,5.28
2022-10-14T21:06:10.157Z,2.63
2022-10-14T21:08:38.548Z,4.57
2022-10-14T21:11:13.990Z,4.15
2022-10-14T21:13:45.593Z,8.60
2022-10-14T21:16:15.264Z,4.05
2022-10-14T21:18:46.277Z,2.95
2022-10-14T21:21:16.637Z,4.20
2022-10-14T21:23:45.381Z,10.52
2022-10-14T21:26:14.619Z,7.35
2022-10-14T21:28:42.806Z,3.90
2022-10-14T21:31:14.771Z,2.47
2022-10-14T21:33:45.296Z,10.27
2022-10-14T21:36:14.836Z,4.30
2022-10-14T21:38:43.029Z,12.90
2022-10-14T21:41:11.202Z,2.45
2022-10-14T21:43:40.806Z,6.22
2022-10-14T21:46:11.077Z,3.42
2022-10-14T21:48:39.788Z,2.42
2022-10-14T21:51:09.198Z,4.28
2022-10-14T21:53:38.079Z,4.45
2022-10-14T21:56:06.914Z,3.45
2022-10-14T21:58:34.973Z,2.72
2022-10-14T22:01:06.756Z,3.72
2022-10-14T22:03:35.563Z,5.40
2022-10-14T22:08:40.791Z,7.20
2022-10-14T22:11:15.683Z,4.03
2022-10-14T22:13:43.627Z,2.50
2022-10-14T22:16:13.558Z,19.90
2022-10-14T22:18:43.452Z,2.75
2022-10-14T22:21:11.573Z,3.35
2022-10-14T22:23:40.332Z,2.80
2022-10-14T22:26:11.958Z,2.53
2022-10-14T22:28:39.863Z,2.33
2022-10-14T22:31:08.878Z,2.17
2022-10-14T22:33:39.335Z,2.00
2022-10-14T22:36:08.912Z,2.78
2022-10-14T22:38:37.550Z,2.28
2022-10-14T22:41:06.950Z,4.10
2022-10-14T22:43:35.881Z,4.88
2022-10-14T22:46:05.875Z,3.08
2022-10-14T22:48:34.280Z,3.95
2022-10-14T22:51:05.600Z,6.65
2022-10-14T22:53:34.122Z,7.15
2022-10-14T22:56:02.053Z,3.83
2022-10-14T22:58:30.301Z,5.13
2022-10-14T23:01:05.800Z,1.77
2022-10-14T23:03:34.690Z,6.97
2022-10-14T23:06:04.733Z,2.42
2022-10-14T23:08:33.402Z,5.40
2022-10-14T23:11:01.577Z,3.20
2022-10-14T23:13:29.766Z,3.40
2022-10-14T23:15:58.591Z,2.38
2022-10-14T23:18:28.018Z,2.25
2022-10-14T23:20:56.388Z,2.80
2022-10-14T23:23:25.824Z,3.85
2022-10-14T23:25:53.721Z,3.03
2022-10-14T23:28:21.614Z,1.40
2022-10-14T23:30:49.505Z,3.78
2022-10-14T23:33:17.354Z,5.22
2022-10-14T23:35:45.229Z,0.80
2022-10-14T23:38:13.357Z,2.05
2022-10-14T23:40:42.709Z,1.35
2022-10-14T23:43:10.527Z,1.20
2022-10-14T23:45:38.460Z,1.13
2022-10-14T23:48:07.490Z,2.58
2022-10-14T23:50:35.370Z,1.17
2022-10-14T23:53:03.278Z,3.78
2022-10-14T23:55:31.193Z,2.33
2022-10-14T23:58:00.389Z,3.35
